Time;durP1;ratioP1;P1;durP2;ratioP2;P2;SDS_P1;SDS_P2;PMS_P1;PMS_P2;Temp;Humidity;BMP_temperature;BMP_pressure;BME280_temperature;BME280_humidity;BME280_pressure;Samples;Min_cycle;Max_cycle;Signal;HPM_P1;HPM_P2
2023/07/26 00:01:34;;;;;;;18.80;17.00;;;12.60;1.00;;;;;;5137488;27;20563;-45
2023/07/26 00:04:00;;;;;;;18.43;16.73;;;12.70;1.00;;;;;;5136525;27;20191;-44
2023/07/26 00:06:26;;;;;;;19.93;18.03;;;12.70;1.00;;;;;;5136569;27;20583;-46
2023/07/26 00:08:52;;;;;;;17.47;15.63;;;12.70;1.00;;;;;;5136850;27;20168;-48
2023/07/26 00:11:18;;;;;;;19.80;17.73;;;12.80;1.00;;;;;;5118832;27;20417;-45
2023/07/26 00:13:43;;;;;;;20.70;18.60;;;12.80;1.00;;;;;;5136127;27;20415;-44
2023/07/26 00:16:09;;;;;;;19.30;17.43;;;12.80;1.00;;;;;;5135397;27;20425;-49
2023/07/26 00:18:35;;;;;;;20.17;18.27;;;12.80;1.00;;;;;;5136644;27;20434;-45
2023/07/26 00:21:01;;;;;;;19.27;17.47;;;12.80;1.00;;;;;;5136936;27;20818;-44
2023/07/26 00:23:26;;;;;;;20.40;18.40;;;12.80;1.00;;;;;;5136532;27;20277;-42
2023/07/26 00:25:52;;;;;;;21.27;19.13;;;12.80;1.00;;;;;;5135984;27;20218;-43
2023/07/26 00:28:17;;;;;;;20.17;18.13;;;12.80;1.00;;;;;;5136832;27;20576;-46
2023/07/26 00:30:43;;;;;;;23.90;20.43;;;12.80;1.00;;;;;;5135476;27;20183;-43
2023/07/26 00:33:09;;;;;;;21.10;19.00;;;12.80;1.00;;;;;;5136524;27;20182;-46
2023/07/26 00:35:40;;;;;;;21.20;19.07;;;12.80;1.00;;;;;;5136556;27;20266;-44
2023/07/26 00:38:05;;;;;;;21.73;19.53;;;12.80;1.00;;;;;;5118012;27;20509;-43
2023/07/26 00:40:31;;;;;;;18.97;17.17;;;12.80;1.00;;;;;;5136447;27;20413;-45
2023/07/26 00:42:57;;;;;;;20.70;18.53;;;12.80;1.00;;;;;;5101271;27;20270;-45
2023/07/26 00:45:22;;;;;;;22.20;20.10;;;12.90;1.00;;;;;;5117940;27;20198;-43
2023/07/26 00:47:48;;;;;;;20.10;18.00;;;12.90;1.00;;;;;;5136165;27;20243;-45
2023/07/26 00:50:14;;;;;;;21.93;19.80;;;12.80;1.00;;;;;;5098754;27;20183;-43
2023/07/26 00:52:40;;;;;;;22.03;19.87;;;12.80;1.00;;;;;;5136173;27;20423;-45
2023/07/26 00:55:06;;;;;;;21.57;19.03;;;12.80;1.00;;;;;;5135691;27;20476;-46
2023/07/26 00:57:32;;;;;;;21.17;19.00;;;12.70;1.00;;;;;;5135768;27;20471;-43
2023/07/26 00:59:58;;;;;;;21.20;19.00;;;12.70;1.00;;;;;;5133938;27;20421;-43
2023/07/26 01:02:24;;;;;;;20.03;18.13;;;12.70;1.00;;;;;;5115767;27;20281;-45
2023/07/26 01:04:51;;;;;;;19.47;17.47;;;12.70;1.00;;;;;;5134266;27;20421;-45
2023/07/26 01:07:27;;;;;;;22.30;18.37;;;12.70;1.00;;;;;;5135205;27;20768;-44
2023/07/26 01:10:05;;;;;;;19.80;17.80;;;12.70;1.00;;;;;;5135304;27;20452;-45
2023/07/26 01:12:36;;;;;;;19.30;17.40;;;12.70;1.00;;;;;;5116146;27;20528;-45
2023/07/26 01:15:05;;;;;;;17.87;16.07;;;12.60;1.00;;;;;;5117067;27;20485;-45
2023/07/26 01:17:31;;;;;;;19.20;16.57;;;12.60;1.00;;;;;;5134522;27;20908;-44
2023/07/26 01:19:57;;;;;;;17.93;16.23;;;12.60;1.00;;;;;;5135248;27;20472;-43
2023/07/26 01:22:22;;;;;;;18.67;16.70;;;12.60;1.00;;;;;;5135671;27;20179;-43
2023/07/26 01:24:48;;;;;;;19.23;17.43;;;12.60;1.00;;;;;;5133913;27;20190;-45
2023/07/26 01:27:13;;;;;;;17.53;15.87;;;12.60;1.00;;;;;;5132922;27;20202;-45
2023/07/26 01:29:39;;;;;;;18.40;16.27;;;12.60;1.00;;;;;;5133387;27;20167;-46
2023/07/26 01:32:07;;;;;;;18.80;15.03;;;12.70;1.00;;;;;;5134231;27;20182;-49
2023/07/26 01:34:33;;;;;;;14.90;13.50;;;12.70;1.00;;;;;;5134508;27;20183;-45
2023/07/26 01:36:59;;;;;;;14.40;13.00;;;12.70;1.00;;;;;;5116837;28;20420;-47
2023/07/26 01:39:25;;;;;;;13.90;12.70;;;12.60;1.00;;;;;;5134917;27;20420;-43
2023/07/26 01:41:50;;;;;;;14.00;12.10;;;12.60;1.00;;;;;;5115727;28;20451;-42
2023/07/26 01:44:16;;;;;;;13.70;12.40;;;12.50;1.00;;;;;;5134715;28;20190;-42
2023/07/26 01:46:42;;;;;;;13.73;12.47;;;12.50;1.00;;;;;;5133291;28;20708;-44
2023/07/26 01:49:07;;;;;;;14.10;12.60;;;12.50;1.00;;;;;;5133765;28;20219;-45
2023/07/26 01:51:33;;;;;;;13.03;11.87;;;12.60;1.00;;;;;;5134780;28;20225;-44
2023/07/26 01:53:58;;;;;;;13.00;11.87;;;12.60;1.00;;;;;;5135106;28;20183;-48
2023/07/26 01:56:24;;;;;;;11.97;10.97;;;12.70;1.00;;;;;;5135639;28;20190;-46
2023/07/26 01:58:50;;;;;;;11.80;10.80;;;12.70;1.00;;;;;;5135526;28;20556;-45
2023/07/26 02:01:15;;;;;;;11.37;10.40;;;12.70;1.00;;;;;;5137362;27;20254;-45
2023/07/26 02:03:41;;;;;;;10.90;10.00;;;12.70;1.00;;;;;;5139765;27;20206;-44
2023/07/26 02:06:06;;;;;;;10.97;10.07;;;12.70;1.00;;;;;;5121473;27;20247;-43
2023/07/26 02:08:32;;;;;;;11.17;10.17;;;12.70;1.00;;;;;;5139134;27;20240;-44
2023/07/26 02:10:58;;;;;;;10.07;9.20;;;12.70;1.00;;;;;;5138228;27;20243;-44
2023/07/26 02:13:23;;;;;;;10.60;9.63;;;12.70;1.00;;;;;;5139036;27;20342;-44
2023/07/26 02:15:49;;;;;;;9.23;8.43;;;12.70;1.00;;;;;;5139260;27;20201;-44
2023/07/26 02:18:15;;;;;;;11.37;10.17;;;12.70;1.00;;;;;;5139656;27;20295;-46
2023/07/26 02:20:40;;;;;;;11.50;10.27;;;12.60;1.00;;;;;;5138583;27;20193;-43
2023/07/26 02:23:06;;;;;;;11.13;10.03;;;12.60;1.00;;;;;;5139040;27;20419;-44
2023/07/26 02:25:31;;;;;;;12.57;10.80;;;12.60;1.00;;;;;;5139200;27;20192;-45
2023/07/26 02:27:57;;;;;;;11.60;10.60;;;12.60;1.00;;;;;;5138801;27;20184;-45
2023/07/26 02:30:23;;;;;;;12.23;11.03;;;12.50;1.00;;;;;;5138947;27;20214;-45
2023/07/26 02:32:48;;;;;;;13.30;11.90;;;12.50;1.00;;;;;;5139041;27;20258;-42
2023/07/26 02:35:14;;;;;;;11.80;10.77;;;12.50;1.00;;;;;;5138685;27;20234;-50
2023/07/26 02:41:02;;;;;;;12.30;11.17;;;12.50;1.00;;;;;;5136313;27;20244;-46
2023/07/26 02:43:27;;;;;;;12.13;10.77;;;12.50;1.00;;;;;;5138485;27;20424;-46
2023/07/26 02:45:53;;;;;;;11.73;10.70;;;12.40;1.00;;;;;;5138580;27;20194;-43
2023/07/26 02:48:18;;;;;;;11.70;10.63;;;12.40;1.00;;;;;;5135923;27;20178;-45
2023/07/26 02:50:44;;;;;;;12.23;10.73;;;12.40;1.00;;;;;;5137195;27;20433;-48
2023/07/26 02:53:09;;;;;;;14.20;11.50;;;12.40;1.00;;;;;;5137045;27;20248;-43
2023/07/26 02:55:35;;;;;;;12.53;11.37;;;12.40;1.00;;;;;;5137197;27;20175;-45
2023/07/26 02:58:01;;;;;;;13.80;12.50;;;12.40;1.00;;;;;;5137205;27;20168;-44
2023/07/26 03:00:26;;;;;;;11.50;10.40;;;12.40;1.00;;;;;;5136701;27;20478;-47
2023/07/26 03:02:52;;;;;;;13.20;11.80;;;12.50;1.00;;;;;;5136180;27;20178;-45
2023/07/26 03:05:18;;;;;;;13.30;12.20;;;12.40;1.00;;;;;;5137078;27;20175;-44
2023/07/26 03:07:43;;;;;;;12.13;11.07;;;12.40;1.00;;;;;;5136149;27;20186;-46
2023/07/26 03:10:09;;;;;;;12.23;11.23;;;12.40;1.00;;;;;;5134924;27;20243;-44
2023/07/26 03:12:35;;;;;;;10.90;9.80;;;12.40;1.00;;;;;;5134531;27;20605;-45
2023/07/26 03:15:00;;;;;;;10.70;9.80;;;12.40;1.00;;;;;;5135445;27;20186;-45
2023/07/26 03:17:26;;;;;;;12.27;10.73;;;12.40;1.00;;;;;;5135071;27;20179;-45
2023/07/26 03:19:51;;;;;;;11.03;10.03;;;12.40;1.00;;;;;;5134550;27;20183;-45
2023/07/26 03:22:17;;;;;;;10.83;9.93;;;12.40;1.00;;;;;;5135797;27;20460;-43
2023/07/26 03:24:43;;;;;;;11.73;10.63;;;12.30;1.00;;;;;;5136461;27;20171;-45
2023/07/26 03:27:08;;;;;;;11.40;10.20;;;12.30;1.00;;;;;;5138842;27;20199;-45
2023/07/26 03:29:34;;;;;;;11.90;10.80;;;12.30;1.00;;;;;;5138124;27;20179;-47
2023/07/26 03:31:59;;;;;;;11.77;10.67;;;12.30;1.00;;;;;;5138050;27;20235;-45
2023/07/26 03:34:25;;;;;;;11.57;10.60;;;12.20;1.00;;;;;;5137679;27;20179;-45
2023/07/26 03:36:51;;;;;;;11.40;10.33;;;12.20;1.00;;;;;;5138448;27;20195;-44
2023/07/26 03:39:16;;;;;;;10.87;9.87;;;12.20;1.00;;;;;;5138413;27;20179;-43
2023/07/26 03:41:42;;;;;;;11.30;10.10;;;12.10;1.00;;;;;;5138221;27;20227;-44
2023/07/26 03:44:07;;;;;;;12.27;9.83;;;12.10;1.00;;;;;;5119669;27;20549;-43
2023/07/26 03:46:33;;;;;;;12.90;11.20;;;12.10;1.00;;;;;;5137716;27;20564;-44
2023/07/26 03:48:59;;;;;;;11.73;10.63;;;12.10;1.00;;;;;;5137707;27;20186;-45
2023/07/26 03:51:24;;;;;;;11.07;9.97;;;12.10;1.00;;;;;;5136464;27;20175;-45
2023/07/26 03:53:50;;;;;;;10.60;9.60;;;12.10;1.00;;;;;;5135643;27;20175;-45
2023/07/26 03:56:16;;;;;;;11.27;10.37;;;12.00;1.00;;;;;;5134676;27;20441;-44
2023/07/26 03:58:42;;;;;;;12.30;11.17;;;12.00;1.00;;;;;;5135501;27;20231;-46
2023/07/26 04:01:07;;;;;;;11.13;10.03;;;12.00;1.00;;;;;;5135472;27;20504;-46
2023/07/26 04:03:34;;;;;;;11.87;10.67;;;11.90;1.00;;;;;;5135505;27;20406;-47
2023/07/26 04:05:59;;;;;;;11.03;10.00;;;11.90;1.00;;;;;;5137020;27;20209;-47
2023/07/26 04:08:25;;;;;;;11.53;10.37;;;11.90;1.00;;;;;;5136821;27;20858;-45
2023/07/26 04:10:51;;;;;;;10.93;9.30;;;11.90;1.00;;;;;;5135466;27;20250;-47
2023/07/26 04:13:16;;;;;;;11.07;10.17;;;12.00;1.00;;;;;;5116866;27;20182;-44
2023/07/26 04:15:42;;;;;;;10.47;9.10;;;12.00;1.00;;;;;;5137648;27;20209;-44
2023/07/26 04:18:07;;;;;;;9.90;8.90;;;12.00;1.00;;;;;;5136735;27;20175;-45
2023/07/26 04:20:33;;;;;;;9.13;8.33;;;12.00;1.00;;;;;;5136812;27;20421;-47
2023/07/26 04:22:59;;;;;;;10.60;9.50;;;12.10;1.00;;;;;;5135426;27;20247;-44
2023/07/26 04:25:24;;;;;;;10.87;9.27;;;12.10;1.00;;;;;;5133520;27;20197;-44
2023/07/26 04:27:50;;;;;;;9.67;8.77;;;12.20;1.00;;;;;;5136346;27;20172;-47
2023/07/26 04:30:15;;;;;;;9.47;8.57;;;12.20;1.00;;;;;;5135602;27;20457;-47
2023/07/26 04:32:41;;;;;;;9.57;8.77;;;12.30;1.00;;;;;;5136526;27;20174;-44
2023/07/26 04:35:07;;;;;;;9.90;8.90;;;12.30;1.00;;;;;;5134917;27;20256;-46
2023/07/26 04:37:33;;;;;;;10.03;9.13;;;12.30;1.00;;;;;;5133234;27;20194;-45
2023/07/26 04:39:58;;;;;;;9.60;8.80;;;12.30;1.00;;;;;;5132400;27;20413;-44
2023/07/26 04:42:24;;;;;;;9.70;8.90;;;12.30;1.00;;;;;;5135019;27;20325;-45
2023/07/26 04:44:49;;;;;;;10.60;9.70;;;12.30;1.00;;;;;;5134000;27;20175;-44
2023/07/26 04:47:16;;;;;;;12.33;9.80;;;12.30;1.00;;;;;;5133458;27;20202;-44
2023/07/26 04:49:42;;;;;;;9.83;9.10;;;12.30;1.00;;;;;;5132809;27;20178;-43
2023/07/26 04:52:08;;;;;;;10.93;9.80;;;12.40;1.00;;;;;;5132254;27;20735;-42
2023/07/26 04:54:34;;;;;;;10.10;9.27;;;12.40;1.00;;;;;;5133401;27;20417;-44
2023/07/26 04:56:59;;;;;;;11.90;10.80;;;12.40;1.00;;;;;;5133304;27;20183;-43
2023/07/26 04:59:25;;;;;;;10.43;9.47;;;12.50;1.00;;;;;;5133447;27;20846;-44
2023/07/26 05:01:50;;;;;;;10.13;9.23;;;12.50;1.00;;;;;;5133988;27;20270;-46
2023/07/26 05:04:16;;;;;;;10.83;9.80;;;12.60;1.00;;;;;;5133507;27;20179;-47
2023/07/26 05:06:42;;;;;;;9.50;8.70;;;12.60;1.00;;;;;;5133190;27;20234;-43
2023/07/26 05:09:07;;;;;;;11.20;10.10;;;12.50;99.90;;;;;;5131288;27;20258;-44
2023/07/26 05:11:33;;;;;;;10.17;9.27;;;12.50;1.00;;;;;;5113660;27;20179;-45
2023/07/26 05:13:58;;;;;;;8.83;7.70;;;12.50;1.00;;;;;;5132530;27;20175;-44
2023/07/26 05:16:24;;;;;;;10.60;9.70;;;12.50;1.00;;;;;;5134140;27;20239;-42
2023/07/26 05:18:50;;;;;;;11.60;10.40;;;12.50;1.00;;;;;;5133455;27;20280;-43
2023/07/26 05:21:15;;;;;;;10.10;9.20;;;12.50;1.00;;;;;;5114648;27;20198;-44
2023/07/26 05:23:41;;;;;;;9.27;8.47;;;12.60;1.00;;;;;;5132647;27;20354;-45
2023/07/26 05:26:06;;;;;;;9.80;8.90;;;12.60;1.00;;;;;;5132795;27;20214;-44
2023/07/26 05:28:32;;;;;;;10.33;9.33;;;12.60;1.00;;;;;;5115393;28;20178;-46
2023/07/26 05:30:58;;;;;;;9.60;8.80;;;12.70;1.00;;;;;;5113487;27;20618;-45
2023/07/26 05:33:23;;;;;;;8.13;7.33;;;12.80;1.00;;;;;;5133781;27;20243;-46
2023/07/26 05:35:49;;;;;;;9.87;9.07;;;12.90;1.00;;;;;;5132296;27;20210;-44
2023/07/26 05:38:15;;;;;;;9.50;7.90;;;13.00;1.00;;;;;;5133485;27;20277;-46
2023/07/26 05:40:40;;;;;;;9.70;8.90;;;13.10;1.00;;;;;;5132697;27;20222;-43
2023/07/26 05:43:06;;;;;;;9.70;8.70;;;13.10;99.90;;;;;;5131899;28;20395;-46
2023/07/26 05:45:31;;;;;;;10.47;9.40;;;13.10;99.90;;;;;;5114624;28;20186;-45
2023/07/26 05:47:57;;;;;;;8.20;7.50;;;13.20;99.90;;;;;;5130794;28;20206;-46
2023/07/26 05:50:23;;;;;;;8.57;7.67;;;13.20;99.90;;;;;;5129791;28;20271;-45
2023/07/26 05:52:48;;;;;;;8.63;7.93;;;13.30;99.90;;;;;;5130770;28;20163;-45
2023/07/26 05:55:15;;;;;;;9.03;8.13;;;13.30;99.90;;;;;;5129449;28;20263;-46
2023/07/26 05:57:41;;;;;;;8.90;8.10;;;13.40;99.90;;;;;;5120604;28;20245;-48
2023/07/26 06:00:07;;;;;;;9.10;8.20;;;13.40;99.90;;;;;;5131224;28;20802;-46
2023/07/26 06:02:33;;;;;;;9.07;8.20;;;13.40;99.90;;;;;;5113803;28;20441;-52
2023/07/26 06:04:59;;;;;;;7.80;7.20;;;13.40;99.90;;;;;;5110649;28;20514;-46
2023/07/26 06:07:25;;;;;;;8.63;7.93;;;13.50;99.90;;;;;;5089948;28;20493;-46
2023/07/26 06:09:51;;;;;;;9.50;8.67;;;13.50;99.90;;;;;;5108375;28;20496;-44
2023/07/26 06:12:16;;;;;;;9.40;8.50;;;13.50;99.90;;;;;;5108383;28;20539;-45
2023/07/26 06:14:42;;;;;;;8.40;7.67;;;13.40;99.90;;;;;;5108062;28;20295;-46
2023/07/26 06:17:08;;;;;;;9.50;8.50;;;13.50;99.90;;;;;;5108809;28;20235;-48
2023/07/26 06:19:34;;;;;;;8.30;7.43;;;13.50;99.90;;;;;;5091740;28;20191;-47
2023/07/26 06:21:59;;;;;;;7.83;7.23;;;13.60;99.90;;;;;;5110195;28;20167;-47
2023/07/26 06:24:25;;;;;;;8.97;8.07;;;13.60;99.90;;;;;;5111874;28;20539;-45
2023/07/26 06:26:54;;;;;;;9.50;8.57;;;13.60;99.90;;;;;;5109973;28;20199;-47
2023/07/26 06:29:20;;;;;;;8.67;7.70;;;13.60;99.90;;;;;;5109675;28;20414;-44
2023/07/26 06:31:46;;;;;;;9.67;7.43;;;13.70;99.90;;;;;;5109794;28;21008;-44
2023/07/26 06:34:12;;;;;;;8.33;7.57;;;13.80;99.90;;;;;;5108454;28;20430;-47
2023/07/26 06:36:37;;;;;;;8.43;7.27;;;13.80;99.90;;;;;;5109398;28;20520;-46
2023/07/26 06:39:04;;;;;;;8.20;7.40;;;13.80;60.10;;;;;;5111095;28;20171;-45
2023/07/26 06:41:29;;;;;;;9.37;7.10;;;13.80;57.90;;;;;;5112216;28;20223;-44
2023/07/26 06:43:55;;;;;;;8.70;7.80;;;13.90;29.30;;;;;;5112752;28;20903;-44
2023/07/26 06:46:21;;;;;;;7.93;7.23;;;13.80;1.00;;;;;;5111784;28;20299;-44
2023/07/26 06:48:46;;;;;;;8.83;7.33;;;13.80;1.00;;;;;;5115926;28;20167;-45
2023/07/26 06:51:12;;;;;;;8.67;7.87;;;13.80;60.10;;;;;;5098979;28;20449;-45
2023/07/26 06:53:38;;;;;;;9.03;8.33;;;13.80;91.20;;;;;;5115963;28;20176;-48
2023/07/26 06:56:04;;;;;;;8.60;7.90;;;13.80;99.90;;;;;;5116777;28;20421;-47
2023/07/26 06:58:29;;;;;;;10.17;7.60;;;13.80;99.90;;;;;;5115425;28;20262;-46
2023/07/26 07:00:55;;;;;;;9.00;7.87;;;13.70;97.20;;;;;;5114573;28;20413;-44
2023/07/26 07:03:21;;;;;;;8.47;7.73;;;13.60;99.90;;;;;;5097248;28;20318;-45
2023/07/26 07:05:47;;;;;;;9.30;7.90;;;13.70;99.90;;;;;;5115035;28;20800;-46
2023/07/26 07:08:13;;;;;;;8.10;7.23;;;13.60;99.90;;;;;;5113491;28;20450;-45
2023/07/26 07:10:38;;;;;;;8.53;7.90;;;13.60;96.60;;;;;;5112150;28;20275;-46
2023/07/26 07:13:04;;;;;;;8.20;7.40;;;13.60;99.90;;;;;;5094953;28;20272;-47
2023/07/26 07:15:30;;;;;;;8.83;8.10;;;13.50;99.90;;;;;;5113107;28;20186;-45
2023/07/26 07:17:55;;;;;;;9.93;8.93;;;13.50;99.90;;;;;;5114349;28;20160;-45
2023/07/26 07:20:21;;;;;;;8.50;7.80;;;13.60;99.90;;;;;;5096531;28;20214;-46
2023/07/26 07:22:47;;;;;;;9.33;8.43;;;13.60;99.90;;;;;;5113227;28;20440;-43
2023/07/26 07:25:12;;;;;;;8.63;7.77;;;13.50;99.90;;;;;;5095755;28;20445;-44
2023/07/26 07:27:38;;;;;;;9.17;8.37;;;13.60;99.90;;;;;;5113548;28;20299;-45
2023/07/26 07:30:05;;;;;;;10.43;9.47;;;13.60;99.90;;;;;;5115506;28;20254;-44
2023/07/26 07:32:31;;;;;;;9.10;8.30;;;13.60;99.90;;;;;;5113472;28;20283;-45
2023/07/26 07:34:57;;;;;;;9.73;8.73;;;13.40;99.90;;;;;;5115247;28;20413;-47
2023/07/26 07:37:22;;;;;;;10.20;9.13;;;13.40;99.90;;;;;;5115241;28;20188;-45
2023/07/26 07:39:48;;;;;;;9.13;8.30;;;13.40;99.90;;;;;;5114036;28;20240;-45
2023/07/26 07:42:13;;;;;;;11.10;9.30;;;13.40;99.90;;;;;;5112478;28;20344;-46
2023/07/26 07:44:39;;;;;;;9.77;8.87;;;13.20;99.90;;;;;;5112012;28;20538;-45
2023/07/26 07:47:05;;;;;;;9.70;8.90;;;13.20;99.90;;;;;;5121892;27;20475;-45
2023/07/26 07:49:31;;;;;;;10.00;9.20;;;13.10;99.90;;;;;;5117317;27;20747;-46
2023/07/26 07:51:56;;;;;;;10.93;9.83;;;13.00;1.00;;;;;;5134370;27;20513;-44
2023/07/26 07:54:22;;;;;;;10.53;8.50;;;12.90;1.00;;;;;;5134538;27;20186;-44
2023/07/26 07:56:48;;;;;;;9.33;8.53;;;12.90;1.00;;;;;;5131816;27;20190;-46
2023/07/26 07:59:13;;;;;;;10.70;8.67;;;13.00;1.00;;;;;;5112361;27;20214;-46
2023/07/26 08:01:39;;;;;;;10.50;7.77;;;13.10;1.00;;;;;;5133015;27;20467;-45
2023/07/26 08:04:04;;;;;;;8.70;6.27;;;13.00;1.00;;;;;;5133343;27;20197;-45
2023/07/26 08:06:32;;;;;;;6.67;6.07;;;12.90;99.90;;;;;;5131007;27;20438;-44
2023/07/26 08:08:57;;;;;;;6.97;6.20;;;13.00;99.90;;;;;;5132903;27;20253;-47
2023/07/26 08:11:23;;;;;;;6.87;6.30;;;13.20;99.90;;;;;;5134022;27;20508;-44
2023/07/26 08:13:48;;;;;;;5.97;5.37;;;13.20;99.90;;;;;;5133562;27;20171;-46
2023/07/26 08:16:14;;;;;;;5.80;5.23;;;13.20;99.90;;;;;;5134024;27;20189;-46
2023/07/26 08:18:40;;;;;;;5.03;4.03;;;13.20;99.90;;;;;;5134477;27;20190;-45
2023/07/26 08:21:06;;;;;;;3.80;3.50;;;13.30;99.90;;;;;;5135801;27;20189;-46
2023/07/26 08:23:32;;;;;;;3.50;3.20;;;13.30;88.60;;;;;;5135019;27;20191;-47
2023/07/26 08:26:08;;;;;;;3.10;2.90;;;13.30;19.40;;;;;;5132976;27;20842;-46
2023/07/26 08:28:34;;;;;;;4.50;3.07;;;13.40;1.00;;;;;;5115164;27;20416;-45
2023/07/26 08:31:00;;;;;;;2.93;2.70;;;13.30;1.00;;;;;;5133986;27;20450;-43
2023/07/26 08:33:25;;;;;;;2.90;2.33;;;13.40;1.00;;;;;;5134718;27;20853;-46
2023/07/26 08:35:51;;;;;;;3.40;2.70;;;13.30;1.00;;;;;;5132329;27;20744;-45
2023/07/26 08:38:19;;;;;;;2.43;2.10;;;13.20;1.00;;;;;;5132364;27;20278;-43
2023/07/26 08:40:49;;;;;;;2.87;2.67;;;13.20;1.00;;;;;;5131659;27;20551;-45
2023/07/26 08:43:18;;;;;;;2.83;2.50;;;13.20;1.00;;;;;;5129876;27;20397;-46
2023/07/26 08:45:44;;;;;;;3.90;3.60;;;13.20;1.00;;;;;;5129883;27;20416;-46
2023/07/26 08:48:10;;;;;;;3.67;3.37;;;13.20;99.90;;;;;;5133253;27;20424;-44
2023/07/26 08:50:38;;;;;;;3.33;2.70;;;13.30;99.90;;;;;;5130808;27;20429;-46
2023/07/26 08:53:08;;;;;;;2.50;2.30;;;13.20;84.40;;;;;;5129829;27;20428;-46
2023/07/26 08:55:37;;;;;;;2.77;2.33;;;13.20;1.00;;;;;;5127073;27;20668;-45
2023/07/26 08:58:04;;;;;;;2.80;2.60;;;13.10;99.90;;;;;;5129498;27;20496;-44
2023/07/26 09:00:30;;;;;;;3.33;2.67;;;13.10;99.90;;;;;;5131483;27;20409;-44
2023/07/26 09:02:58;;;;;;;4.60;2.53;;;13.10;99.90;;;;;;5130865;27;20726;-44
2023/07/26 09:05:24;;;;;;;2.67;2.43;;;13.20;51.50;;;;;;5096407;27;20818;-43
2023/07/26 09:07:51;;;;;;;3.30;2.00;;;13.20;99.90;;;;;;5132533;27;20509;-44
2023/07/26 09:10:30;;;;;;;2.47;2.27;;;13.20;99.90;;;;;;5132759;27;20442;-45
2023/07/26 09:13:13;;;;;;;2.33;2.13;;;13.30;99.90;;;;;;5131407;27;20428;-47
2023/07/26 09:15:41;;;;;;;2.87;2.20;;;13.30;6.10;;;;;;5122643;27;20430;-43
2023/07/26 09:18:08;;;;;;;2.30;2.10;;;13.20;99.90;;;;;;5112764;28;20432;-45
2023/07/26 09:20:34;;;;;;;2.37;2.17;;;13.00;99.90;;;;;;5112771;28;20421;-46
2023/07/26 09:23:08;;;;;;;2.53;2.33;;;13.00;99.90;;;;;;5112390;28;20417;-48
2023/07/26 09:25:43;;;;;;;3.70;2.40;;;12.90;99.90;;;;;;5093929;28;20452;-44
2023/07/26 09:28:17;;;;;;;3.17;2.77;;;12.90;99.90;;;;;;5077621;27;20439;-47
2023/07/26 09:30:48;;;;;;;2.20;2.00;;;12.70;99.90;;;;;;5111714;28;20413;-43
2023/07/26 09:33:15;;;;;;;3.30;2.57;;;12.60;99.90;;;;;;5111719;28;21079;-44
2023/07/26 09:35:46;;;;;;;3.83;1.87;;;12.60;99.90;;;;;;5109480;28;20447;-46
2023/07/26 09:38:13;;;;;;;1.97;1.77;;;12.70;99.90;;;;;;5107511;28;20421;-44
2023/07/26 09:40:39;;;;;;;2.73;2.30;;;12.80;99.90;;;;;;5107562;28;20556;-46
2023/07/26 09:43:05;;;;;;;2.73;2.40;;;13.00;99.90;;;;;;5109131;28;20414;-47
2023/07/26 09:45:32;;;;;;;3.13;2.23;;;13.10;99.90;;;;;;5108966;28;20754;-44
2023/07/26 09:48:06;;;;;;;2.00;1.80;;;13.20;99.90;;;;;;5089156;28;20729;-46
2023/07/26 09:50:31;;;;;;;2.40;2.20;;;13.40;9.60;;;;;;5107376;28;20450;-45
2023/07/26 09:52:57;;;;;;;3.10;1.90;;;13.70;1.00;;;;;;5107970;28;20478;-47
2023/07/26 09:55:25;;;;;;;4.53;2.07;;;14.00;1.00;;;;;;5105871;28;20172;-44
2023/07/26 09:57:55;;;;;;;1.77;1.50;;;14.30;1.00;;;;;;5107075;28;20463;-44
2023/07/26 10:00:26;;;;;;;2.53;1.93;;;14.60;99.90;;;;;;5107991;28;20496;-42
2023/07/26 10:02:56;;;;;;;2.90;1.70;;;15.10;1.00;;;;;;5110153;28;20417;-44
2023/07/26 10:05:24;;;;;;;2.90;1.87;;;15.30;95.60;;;;;;5108822;28;20428;-45
2023/07/26 10:07:50;;;;;;;2.63;1.47;;;16.00;99.90;;;;;;5111606;28;20517;-45
2023/07/26 10:10:17;;;;;;;3.60;2.27;;;16.60;1.00;;;;;;5109788;28;20486;-47
2023/07/26 10:12:49;;;;;;;2.40;2.00;;;17.00;99.90;;;;;;5109438;28;20841;-44
2023/07/26 10:15:15;;;;;;;3.23;2.10;;;17.20;99.90;;;;;;5110235;28;20441;-44
2023/07/26 10:17:47;;;;;;;4.83;2.00;;;17.00;99.90;;;;;;5109726;28;20567;-48
2023/07/26 10:20:13;;;;;;;2.17;1.70;;;17.30;91.20;;;;;;5112356;28;20419;-45
2023/07/26 10:22:41;;;;;;;2.30;1.70;;;17.10;99.90;;;;;;5096717;28;20863;-45
2023/07/26 10:25:06;;;;;;;3.47;2.23;;;16.60;99.90;;;;;;5096547;28;20591;-45
2023/07/26 10:27:32;;;;;;;2.03;1.83;;;16.40;1.00;;;;;;5113312;28;20432;-43
2023/07/26 10:29:58;;;;;;;2.50;2.10;;;16.10;99.90;;;;;;5112703;28;20453;-45
2023/07/26 10:32:26;;;;;;;3.40;2.77;;;15.80;1.00;;;;;;5093484;28;20391;-45
2023/07/26 10:34:56;;;;;;;2.67;2.40;;;15.70;99.90;;;;;;5111678;28;20248;-47
2023/07/26 10:37:23;;;;;;;2.53;2.20;;;15.80;99.90;;;;;;5111461;28;20735;-45
2023/07/26 10:39:49;;;;;;;3.07;2.77;;;15.80;99.90;;;;;;5112421;28;20410;-44
2023/07/26 10:42:25;;;;;;;3.33;2.77;;;15.70;96.10;;;;;;5079276;28;20473;-47
2023/07/26 10:44:53;;;;;;;3.13;2.83;;;15.50;1.00;;;;;;5116759;28;20857;-43
2023/07/26 10:47:18;;;;;;;3.47;3.17;;;15.20;13.00;;;;;;5115757;28;20506;-43
2023/07/26 10:49:46;;;;;;;4.17;3.50;;;15.00;1.00;;;;;;5114378;28;20722;-44
2023/07/26 10:52:12;;;;;;;5.00;2.90;;;14.90;98.00;;;;;;5115643;28;20167;-44
2023/07/26 10:54:47;;;;;;;3.27;2.93;;;14.60;1.00;;;;;;5099326;28;20413;-44
2023/07/26 10:57:28;;;;;;;3.80;3.27;;;14.70;99.90;;;;;;5115575;28;20463;-45
2023/07/26 11:00:00;;;;;;;4.27;3.40;;;14.60;99.90;;;;;;5115414;28;20822;-45
2023/07/26 11:02:44;;;;;;;3.27;2.87;;;14.80;1.00;;;;;;5115165;28;20413;-43
2023/07/26 11:05:21;;;;;;;3.80;2.60;;;15.10;99.90;;;;;;5114566;28;20417;-44
2023/07/26 11:07:54;;;;;;;3.07;2.77;;;15.20;99.90;;;;;;5114317;28;20592;-44
2023/07/26 11:10:33;;;;;;;2.70;2.43;;;15.50;1.00;;;;;;5114115;28;20445;-45
2023/07/26 11:13:12;;;;;;;2.97;2.53;;;16.00;99.90;;;;;;5112925;28;20721;-47
2023/07/26 11:15:48;;;;;;;2.83;2.60;;;16.20;1.00;;;;;;5112226;28;20897;-46
2023/07/26 11:18:21;;;;;;;3.10;2.50;;;16.70;1.00;;;;;;5108205;28;20416;-46
2023/07/26 11:20:51;;;;;;;2.33;1.90;;;17.30;99.90;;;;;;5109966;28;20449;-44
2023/07/26 11:23:21;;;;;;;2.30;2.07;;;18.20;99.90;;;;;;5111019;28;20581;-47
2023/07/26 11:25:48;;;;;;;2.23;2.03;;;18.50;1.00;;;;;;5112853;28;20435;-45
2023/07/26 11:28:14;;;;;;;4.17;2.30;;;18.40;1.00;;;;;;5111396;28;20416;-45
2023/07/26 11:30:45;;;;;;;2.70;2.50;;;18.40;1.00;;;;;;5113667;28;20441;-44
2023/07/26 11:33:11;;;;;;;3.67;2.73;;;18.80;1.00;;;;;;5112439;28;20470;-46
2023/07/26 11:35:41;;;;;;;3.17;1.90;;;19.30;1.00;;;;;;5094441;28;20714;-47
2023/07/26 11:38:07;;;;;;;2.37;2.00;;;19.10;99.90;;;;;;5113335;28;20263;-45
2023/07/26 11:40:42;;;;;;;3.00;2.50;;;19.30;99.90;;;;;;5113248;28;20781;-46
2023/07/26 11:43:09;;;;;;;5.60;2.87;;;19.60;99.90;;;;;;5115231;28;20483;-47
2023/07/26 11:45:39;;;;;;;4.07;2.37;;;18.70;99.90;;;;;;5115475;28;20416;-47
2023/07/26 11:48:10;;;;;;;3.70;2.33;;;18.80;99.90;;;;;;5096055;28;20719;-46
2023/07/26 11:50:37;;;;;;;2.60;2.40;;;18.70;99.90;;;;;;5113217;28;20704;-46
2023/07/26 11:53:08;;;;;;;2.83;2.30;;;18.50;99.90;;;;;;5113210;28;20471;-44
2023/07/26 11:55:41;;;;;;;4.10;2.70;;;18.90;99.90;;;;;;5075355;28;20699;-48
2023/07/26 11:58:09;;;;;;;2.70;2.47;;;19.70;99.90;;;;;;5112059;28;20957;-45
2023/07/26 12:00:36;;;;;;;2.67;2.43;;;20.30;21.10;;;;;;5112125;28;21084;-49
2023/07/26 12:03:03;;;;;;;5.77;3.00;;;19.80;4.70;;;;;;5111416;28;20409;-47
2023/07/26 12:05:29;;;;;;;3.13;2.83;;;19.40;17.20;;;;;;5112140;28;20418;-45
2023/07/26 12:07:58;;;;;;;3.30;2.70;;;19.40;21.50;;;;;;5111640;28;20488;-45
2023/07/26 12:10:29;;;;;;;2.80;2.57;;;19.00;22.60;;;;;;5112727;28;20183;-45
2023/07/26 12:12:56;;;;;;;6.70;2.77;;;18.30;23.90;;;;;;5113481;28;20413;-47
2023/07/26 12:15:22;;;;;;;2.70;2.50;;;18.00;99.90;;;;;;5112800;28;20422;-49
2023/07/26 12:18:02;;;;;;;2.63;2.43;;;17.90;99.90;;;;;;5112895;28;20476;-45
2023/07/26 12:20:29;;;;;;;5.23;2.93;;;17.30;99.90;;;;;;5105361;28;20417;-47
2023/07/26 12:22:58;;;;;;;3.20;2.60;;;17.20;1.00;;;;;;5112646;28;20500;-45
2023/07/26 12:25:37;;;;;;;3.50;3.07;;;17.10;1.00;;;;;;5113114;28;20475;-47
2023/07/26 12:28:07;;;;;;;3.70;2.60;;;16.90;99.90;;;;;;5112201;28;20433;-47
2023/07/26 12:30:33;;;;;;;3.47;3.17;;;16.70;99.90;;;;;;5110655;28;20417;-47
2023/07/26 12:33:13;;;;;;;5.40;3.50;;;16.50;1.00;;;;;;5111668;28;20500;-46
2023/07/26 12:35:41;;;;;;;4.60;3.37;;;16.50;99.90;;;;;;5112286;28;20429;-45
2023/07/26 12:38:11;;;;;;;3.37;2.80;;;16.60;99.90;;;;;;5112871;28;20500;-46
2023/07/26 12:40:39;;;;;;;4.63;3.17;;;16.40;1.00;;;;;;5112628;28;20575;-44
2023/07/26 12:43:24;;;;;;;5.23;4.20;;;16.30;1.00;;;;;;5112711;28;20920;-43
2023/07/26 12:45:50;;;;;;;3.50;3.10;;;16.20;1.00;;;;;;5112517;28;20409;-45
2023/07/26 12:48:16;;;;;;;5.10;3.40;;;16.50;99.90;;;;;;5112097;28;20835;-45